Time;durP1;ratioP1;P1;durP2;ratioP2;P2;SDS_P1;SDS_P2;PMS_P1;PMS_P2;Temp;Humidity;BMP_temperature;BMP_pressure;BME280_temperature;BME280_humidity;BME280_pressure;Samples;Min_cycle;Max_cycle;Signal;HPM_P1;HPM_P2
2022/04/29 00:00:25;;;;;;;12.37;7.77;;;;;;;9.29;67.02;102695.78;5077951;28;20451;-69
2022/04/29 00:02:51;;;;;;;10.90;8.37;;;;;;;9.03;67.77;102698.03;5077450;28;20212;-69
2022/04/29 00:05:17;;;;;;;14.50;8.77;;;;;;;8.74;68.71;102701.81;5077954;28;20411;-69
2022/04/29 00:07:42;;;;;;;13.40;8.50;;;;;;;8.56;69.16;102694.91;5077767;28;20486;-70
2022/04/29 00:10:12;;;;;;;12.80;8.53;;;;;;;8.74;69.18;102689.75;5077673;28;20173;-69
2022/04/29 00:12:42;;;;;;;12.00;7.70;;;;;;;8.93;68.89;102690.63;5077983;28;20242;-69
2022/04/29 00:15:08;;;;;;;15.83;8.83;;;;;;;8.46;69.41;102686.56;5077692;28;20407;-69
2022/04/29 00:17:34;;;;;;;18.63;9.27;;;;;;;8.52;69.98;102692.09;5066161;28;20421;-69
2022/04/29 00:19:59;;;;;;;13.77;8.70;;;;;;;8.71;69.45;102700.00;5078071;28;20414;-69
2022/04/29 00:22:24;;;;;;;11.73;8.30;;;;;;;8.80;69.23;102698.66;5077420;28;20594;-70
2022/04/29 00:24:50;;;;;;;15.43;8.87;;;;;;;8.87;68.11;102703.34;5077773;28;20264;-70
2022/04/29 00:27:15;;;;;;;13.93;8.80;;;;;;;8.70;69.21;102700.81;5077935;28;20550;-68
2022/04/29 00:29:41;;;;;;;11.87;8.80;;;;;;;9.02;68.53;102696.25;5077397;28;20200;-70
2022/04/29 00:32:06;;;;;;;13.50;8.50;;;;;;;8.86;68.56;102696.34;5077389;28;20185;-71
2022/04/29 00:34:32;;;;;;;11.77;8.33;;;;;;;9.25;67.68;102688.63;5077967;28;20433;-71
2022/04/29 00:36:57;;;;;;;12.77;8.87;;;;;;;8.73;68.96;102700.94;5080291;28;20188;-72
2022/04/29 00:39:23;;;;;;;15.63;8.50;;;;;;;8.71;69.10;102692.19;5077818;28;20214;-67
2022/04/29 00:41:49;;;;;;;12.33;7.90;;;;;;;8.84;68.76;102695.38;5077830;28;20175;-67
2022/04/29 00:44:14;;;;;;;16.27;8.97;;;;;;;8.86;68.77;102684.25;5077281;28;20419;-68
2022/04/29 00:46:41;;;;;;;13.30;9.07;;;;;;;8.67;69.54;102682.44;5080553;28;20843;-68
2022/04/29 00:49:08;;;;;;;14.10;9.50;;;;;;;8.62;69.68;102678.75;5081903;28;20164;-69
2022/04/29 00:51:34;;;;;;;16.57;8.33;;;;;;;8.15;70.70;102680.72;5064911;28;20444;-69
2022/04/29 00:54:02;;;;;;;12.63;8.60;;;;;;;8.40;70.82;102677.66;5081295;28;20423;-70
2022/04/29 00:56:29;;;;;;;8.87;6.33;;;;;;;9.64;71.17;102669.56;5080873;28;20446;-67
2022/04/29 00:59:16;;;;;;;12.83;8.50;;;;;;;10.34;68.33;102663.91;5080939;28;20530;-64
2022/04/29 01:01:46;;;;;;;16.43;9.40;;;;;;;8.89;67.87;102667.88;5063911;28;20423;-70
2022/04/29 01:04:32;;;;;;;12.07;8.87;;;;;;;8.83;68.81;102668.47;5070969;28;20786;-70
2022/04/29 01:06:57;;;;;;;14.30;9.50;;;;;;;8.65;68.99;102671.09;5080372;28;20415;-70
2022/04/29 01:09:22;;;;;;;13.60;9.37;;;;;;;8.32;70.13;102678.06;5080834;28;20449;-70
2022/04/29 01:11:49;;;;;;;13.50;8.70;;;;;;;8.23;70.26;102668.13;5080901;28;20546;-70
2022/04/29 01:14:14;;;;;;;15.37;9.13;;;;;;;8.16;70.96;102661.72;5080956;28;20173;-71
2022/04/29 01:16:41;;;;;;;13.93;8.80;;;;;;;7.96;71.43;102665.91;5081069;28;20466;-70
2022/04/29 01:19:06;;;;;;;18.23;9.30;;;;;;;8.23;71.03;102673.31;5080934;28;20185;-69
2022/04/29 01:21:32;;;;;;;12.17;9.10;;;;;;;8.36;71.02;102665.31;5081078;28;20423;-70
2022/04/29 01:23:57;;;;;;;21.00;8.97;;;;;;;8.38;70.17;102663.69;5080511;28;20570;-70
2022/04/29 01:26:22;;;;;;;13.70;8.73;;;;;;;8.85;69.57;102647.72;5080708;28;20183;-71
2022/04/29 01:28:48;;;;;;;13.13;10.23;;;;;;;8.29;70.35;102651.94;5081136;28;20181;-70
2022/04/29 01:31:16;;;;;;;15.67;8.90;;;;;;;8.64;69.47;102656.28;5079771;28;20208;-71
2022/04/29 01:33:43;;;;;;;16.00;9.50;;;;;;;8.45;70.12;102653.59;5080689;28;20161;-69
2022/04/29 01:36:09;;;;;;;15.70;9.57;;;;;;;8.46;69.71;102658.00;5080248;28;20476;-68
2022/04/29 01:38:36;;;;;;;16.50;9.50;;;;;;;8.73;69.22;102659.34;5080541;28;20706;-68
2022/04/29 01:41:01;;;;;;;17.03;9.73;;;;;;;8.69;68.76;102660.00;5080375;28;20473;-69
2022/04/29 01:43:27;;;;;;;14.33;9.67;;;;;;;8.35;69.95;102652.22;5080681;28;20895;-68
2022/04/29 01:45:54;;;;;;;16.63;9.60;;;;;;;8.71;69.83;102660.09;5080132;28;20232;-68
2022/04/29 01:48:19;;;;;;;11.10;8.80;;;;;;;8.47;70.11;102660.69;5080258;28;20184;-68
2022/04/29 01:50:44;;;;;;;14.57;9.37;;;;;;;8.46;69.73;102658.00;5080610;28;20411;-71
2022/04/29 01:53:10;;;;;;;15.30;9.97;;;;;;;8.46;70.10;102666.69;5080148;28;20224;-69
2022/04/29 01:55:35;;;;;;;15.90;9.80;;;;;;;8.63;69.16;102664.91;5080354;28;20169;-70
2022/04/29 01:58:00;;;;;;;17.80;9.67;;;;;;;8.64;69.16;102665.81;5079715;28;20180;-69
2022/04/29 02:00:26;;;;;;;20.00;9.37;;;;;;;8.85;68.73;102666.84;5080122;28;20546;-69
2022/04/29 02:02:51;;;;;;;16.23;9.80;;;;;;;8.72;68.91;102664.47;5079289;28;20250;-69
2022/04/29 02:05:18;;;;;;;15.70;10.40;;;;;;;8.72;68.68;102660.16;5080244;28;20530;-69
2022/04/29 02:07:44;;;;;;;16.50;10.80;;;;;;;8.90;68.22;102654.06;5079982;28;20165;-70
2022/04/29 02:10:09;;;;;;;15.97;9.40;;;;;;;8.96;67.95;102646.56;5081886;28;20422;-69
2022/04/29 02:12:35;;;;;;;15.83;9.30;;;;;;;8.72;68.87;102648.88;5080898;28;20828;-69
2022/04/29 02:15:01;;;;;;;21.30;9.63;;;;;;;8.67;68.99;102651.22;5080043;28;20193;-70
2022/04/29 02:17:26;;;;;;;13.83;9.57;;;;;;;8.27;70.21;102639.75;5079855;28;20427;-70
2022/04/29 02:19:51;;;;;;;20.60;9.60;;;;;;;8.64;68.77;102640.69;5080184;28;20169;-70
2022/04/29 02:22:17;;;;;;;15.03;9.37;;;;;;;8.49;68.90;102638.25;5078668;28;20465;-69
2022/04/29 02:24:42;;;;;;;13.90;9.03;;;;;;;8.39;69.47;102641.19;5079693;28;20493;-69
2022/04/29 02:27:08;;;;;;;13.73;9.50;;;;;;;8.36;69.37;102651.41;5080043;28;20205;-70
2022/04/29 02:29:34;;;;;;;16.87;10.00;;;;;;;8.67;69.12;102650.34;5062501;28;20244;-69
2022/04/29 02:31:59;;;;;;;13.07;8.57;;;;;;;8.55;69.05;102645.44;5078704;28;20157;-69
2022/04/29 02:34:25;;;;;;;16.03;9.93;;;;;;;8.42;69.63;102637.03;5079891;28;20250;-68
2022/04/29 02:36:51;;;;;;;12.30;9.20;;;;;;;8.43;69.68;102641.41;5079702;28;20271;-68
2022/04/29 02:39:16;;;;;;;18.13;10.33;;;;;;;8.21;69.64;102634.28;5079403;28;20176;-69
2022/04/29 02:41:41;;;;;;;16.40;9.67;;;;;;;8.26;69.88;102637.97;5079659;28;20211;-69
2022/04/29 02:44:07;;;;;;;18.27;9.50;;;;;;;8.49;69.31;102645.16;5079140;28;20219;-69
2022/04/29 02:46:33;;;;;;;13.10;9.73;;;;;;;8.55;68.94;102646.34;5079116;28;20268;-69
2022/04/29 02:48:58;;;;;;;18.23;10.10;;;;;;;8.62;68.84;102646.63;5079961;28;20196;-69
2022/04/29 02:51:23;;;;;;;11.40;9.50;;;;;;;8.45;69.23;102651.00;5079002;28;20423;-68
2022/04/29 02:53:48;;;;;;;19.57;11.00;;;;;;;8.16;69.62;102647.81;5079407;28;20183;-69
2022/04/29 02:56:14;;;;;;;19.27;11.27;;;;;;;8.52;69.14;102645.31;5079291;28;20180;-68
2022/04/29 02:58:39;;;;;;;14.20;10.33;;;;;;;8.22;69.59;102646.41;5079195;28;20333;-69
2022/04/29 03:01:04;;;;;;;16.83;10.30;;;;;;;7.88;70.68;102642.13;5078082;28;20560;-69
2022/04/29 03:03:30;;;;;;;12.73;10.10;;;;;;;8.16;70.55;102633.13;5079172;28;20201;-68
2022/04/29 03:05:55;;;;;;;18.23;10.00;;;;;;;7.93;70.39;102631.97;5078873;28;20263;-69
2022/04/29 03:08:21;;;;;;;12.90;9.63;;;;;;;8.35;69.82;102636.63;5078008;28;20188;-68
2022/04/29 03:10:49;;;;;;;12.40;9.20;;;;;;;8.18;69.74;102628.91;5079250;28;20199;-68
2022/04/29 03:13:15;;;;;;;16.03;9.60;;;;;;;8.21;69.85;102630.75;5077962;28;20208;-68
2022/04/29 03:15:40;;;;;;;14.07;9.43;;;;;;;8.29;69.21;102625.94;5078811;28;20505;-68
2022/04/29 03:18:18;;;;;;;14.00;9.60;;;;;;;8.24;69.21;102629.22;5079068;28;20668;-69
2022/04/29 03:20:44;;;;;;;17.43;10.50;;;;;;;8.15;69.26;102626.16;5078807;28;20188;-68
2022/04/29 03:23:10;;;;;;;15.83;9.73;;;;;;;8.12;69.76;102618.22;5078534;28;20470;-68
2022/04/29 03:25:35;;;;;;;20.40;9.93;;;;;;;8.28;69.06;102614.69;5078648;28;20426;-68
2022/04/29 03:28:02;;;;;;;19.47;9.17;;;;;;;8.34;69.38;102620.16;5078588;28;20181;-70
2022/04/29 03:30:27;;;;;;;14.30;9.40;;;;;;;8.06;70.03;102617.91;5078752;28;20176;-69
2022/04/29 03:32:58;;;;;;;14.87;10.10;;;;;;;8.39;69.40;102615.22;5078301;28;20680;-69
2022/04/29 03:35:25;;;;;;;16.47;9.90;;;;;;;8.07;69.61;102611.91;5079196;28;20189;-70
2022/04/29 03:37:52;;;;;;;13.10;9.20;;;;;;;8.13;69.48;102619.09;5079517;28;20426;-69
2022/04/29 03:40:21;;;;;;;12.70;8.93;;;;;;;8.15;68.86;102614.88;5078323;28;20423;-69
2022/04/29 03:42:48;;;;;;;16.53;12.37;;;;;;;8.23;68.99;102611.84;5078287;28;20528;-69
2022/04/29 03:45:13;;;;;;;17.87;9.87;;;;;;;8.17;68.91;102608.03;5078549;28;20418;-70
2022/04/29 03:47:39;;;;;;;15.63;10.00;;;;;;;8.37;68.24;102609.03;5077868;28;20481;-69
2022/04/29 03:50:05;;;;;;;17.23;9.80;;;;;;;8.26;68.44;102611.09;5077259;28;20176;-69
2022/04/29 03:52:30;;;;;;;14.33;9.70;;;;;;;8.23;68.55;102610.97;5077740;28;20555;-69
2022/04/29 03:54:56;;;;;;;14.80;10.20;;;;;;;7.98;68.60;102599.31;5077957;28;20477;-68
2022/04/29 03:57:21;;;;;;;13.97;10.50;;;;;;;8.17;68.82;102611.56;5077838;28;20181;-69
2022/04/29 03:59:48;;;;;;;12.40;9.43;;;;;;;8.20;68.01;102614.28;5078429;28;20165;-68
2022/04/29 04:02:13;;;;;;;15.73;9.10;;;;;;;8.62;67.39;102605.94;5077436;28;20264;-70
2022/04/29 04:04:39;;;;;;;12.40;8.97;;;;;;;8.59;67.08;102614.50;5079537;28;20546;-70
2022/04/29 04:07:04;;;;;;;16.67;9.57;;;;;;;8.57;67.18;102610.91;5078635;28;20181;-70
2022/04/29 04:09:30;;;;;;;14.27;9.50;;;;;;;8.59;66.90;102611.88;5077954;28;20565;-69
2022/04/29 04:11:55;;;;;;;18.80;9.50;;;;;;;8.43;67.10;102610.22;5077788;28;20185;-71
2022/04/29 04:14:20;;;;;;;13.97;10.27;;;;;;;8.29;67.49;102613.84;5078081;28;20213;-69
2022/04/29 04:16:47;;;;;;;16.27;10.40;;;;;;;8.20;68.08;102618.56;5077766;28;20188;-68
2022/04/29 04:19:12;;;;;;;30.37;10.87;;;;;;;8.38;67.82;102610.81;5077599;28;20188;-69
2022/04/29 04:21:37;;;;;;;16.77;11.73;;;;;;;8.49;67.76;102613.97;5078017;28;20796;-69
2022/04/29 04:24:03;;;;;;;12.90;9.70;;;;;;;8.36;66.83;102613.34;5077783;28;20592;-69
2022/04/29 04:26:28;;;;;;;14.33;9.73;;;;;;;8.36;66.77;102617.63;5077762;28;20211;-68
2022/04/29 04:28:54;;;;;;;11.30;9.50;;;;;;;8.46;66.81;102619.00;5078248;28;20169;-69
2022/04/29 04:31:24;;;;;;;17.90;10.00;;;;;;;8.79;65.75;102619.72;5077604;28;20264;-68
2022/04/29 04:33:49;;;;;;;16.73;9.67;;;;;;;8.88;65.74;102611.50;5077667;28;20190;-68
2022/04/29 04:36:15;;;;;;;12.90;9.20;;;;;;;9.07;65.05;102619.31;5078026;28;20426;-68
2022/04/29 04:38:41;;;;;;;15.27;9.23;;;;;;;8.67;65.33;102625.22;5077785;28;20176;-69
2022/04/29 04:41:07;;;;;;;12.10;9.30;;;;;;;8.81;65.46;102625.00;5077590;28;20173;-70
2022/04/29 04:43:33;;;;;;;16.00;10.23;;;;;;;8.40;66.10;102620.47;5077586;28;20466;-69
2022/04/29 04:45:58;;;;;;;18.13;9.00;;;;;;;8.88;65.51;102625.38;5077110;28;20475;-68
2022/04/29 04:48:23;;;;;;;13.00;9.00;;;;;;;8.50;65.89;102629.63;5077426;28;20219;-69
2022/04/29 04:50:48;;;;;;;14.47;9.00;;;;;;;8.33;66.55;102628.75;5077840;28;20255;-70
2022/04/29 04:53:14;;;;;;;15.43;9.67;;;;;;;8.28;66.56;102625.06;5077269;28;20200;-69
2022/04/29 04:55:40;;;;;;;25.23;10.07;;;;;;;8.29;67.49;102628.56;5077432;28;20458;-69
2022/04/29 04:58:06;;;;;;;16.37;9.50;;;;;;;8.61;66.24;102630.16;5077710;28;20177;-69
2022/04/29 05:00:31;;;;;;;11.13;8.47;;;;;;;8.45;65.88;102625.91;5077473;28;20263;-70
2022/04/29 05:02:56;;;;;;;16.73;10.53;;;;;;;8.58;65.81;102627.41;5059572;28;20463;-69
2022/04/29 05:05:22;;;;;;;19.73;9.83;;;;;;;8.50;66.04;102629.63;5077689;28;20315;-69
2022/04/29 05:07:47;;;;;;;21.90;10.43;;;;;;;8.67;65.12;102635.63;5077371;28;20256;-70
2022/04/29 05:10:13;;;;;;;15.20;9.67;;;;;;;8.63;65.93;102636.31;5076857;28;20469;-70
2022/04/29 05:12:43;;;;;;;20.20;11.20;;;;;;;8.95;64.80;102634.34;5077662;28;20184;-68
2022/04/29 05:15:09;;;;;;;13.17;8.83;;;;;;;8.59;64.94;102634.38;5077416;28;20568;-70
2022/04/29 05:17:34;;;;;;;14.10;9.17;;;;;;;8.91;64.43;102638.50;5077011;28;20455;-69
2022/04/29 05:19:59;;;;;;;16.23;9.60;;;;;;;9.08;64.18;102630.63;5077644;28;20189;-69
2022/04/29 05:22:28;;;;;;;11.33;9.00;;;;;;;9.41;62.80;102636.47;5076860;28;20205;-68
2022/04/29 05:24:53;;;;;;;12.23;8.57;;;;;;;9.48;62.83;102626.34;5077187;28;20239;-68
2022/04/29 05:27:19;;;;;;;13.87;9.97;;;;;;;10.08;61.04;102624.59;5077346;28;20403;-69
2022/04/29 05:29:44;;;;;;;12.83;9.47;;;;;;;11.31;57.83;102632.03;5077086;28;20682;-69
2022/04/29 05:32:09;;;;;;;13.93;8.90;;;;;;;11.08;57.07;102630.34;5077758;28;20184;-70
2022/04/29 05:34:34;;;;;;;9.87;8.00;;;;;;;11.31;56.48;102632.03;5081039;28;20192;-69
2022/04/29 05:37:00;;;;;;;11.60;8.37;;;;;;;11.80;55.41;102628.59;5072882;28;20199;-69
2022/04/29 05:42:15;;;;;;;14.77;8.50;;;;;;;11.48;55.69;102630.03;5078948;28;20820;-69
2022/04/29 05:44:41;;;;;;;11.37;9.27;;;;;;;12.19;54.71;102632.53;5080213;28;20483;-69
2022/04/29 05:47:07;;;;;;;15.17;9.23;;;;;;;12.36;53.78;102628.75;5076019;28;20466;-68
2022/04/29 05:49:32;;;;;;;14.33;8.17;;;;;;;12.89;51.95;102626.03;5075705;28;20402;-70
2022/04/29 05:52:02;;;;;;;22.33;13.07;;;;;;;13.40;49.85;102624.94;5080309;28;20318;-68
2022/04/29 05:54:27;;;;;;;8.43;7.63;;;;;;;14.19;47.65;102620.88;5075931;28;20562;-68
2022/04/29 05:56:53;;;;;;;13.93;7.80;;;;;;;13.68;48.69;102617.84;5079945;28;20505;-69
2022/04/29 05:59:18;;;;;;;10.80;7.87;;;;;;;11.68;53.73;102636.00;5080136;28;20229;-68
2022/04/29 06:01:44;;;;;;;13.03;9.03;;;;;;;11.62;54.08;102636.63;5080040;28;20215;-69
2022/04/29 06:04:09;;;;;;;9.60;7.87;;;;;;;12.05;54.42;102639.91;5078954;28;20235;-69
2022/04/29 06:06:35;;;;;;;14.97;8.47;;;;;;;12.10;54.01;102633.13;5071899;28;20542;-69
2022/04/29 06:09:00;;;;;;;8.50;7.33;;;;;;;14.01;48.91;102622.19;5079647;28;20180;-68
2022/04/29 06:11:25;;;;;;;10.73;7.07;;;;;;;15.03;46.17;102619.34;5079523;28;20184;-68
2022/04/29 06:13:51;;;;;;;9.10;7.20;;;;;;;15.85;43.77;102617.47;5079911;28;20207;-69
2022/04/29 06:16:17;;;;;;;10.47;7.90;;;;;;;15.40;44.66;102620.13;5079523;28;20199;-69
2022/04/29 06:18:43;;;;;;;10.77;7.20;;;;;;;15.47;43.34;102615.88;5079687;28;20221;-70
2022/04/29 06:21:08;;;;;;;11.77;8.20;;;;;;;15.88;43.60;102613.13;5079988;28;20582;-69
2022/04/29 06:23:33;;;;;;;9.20;6.87;;;;;;;16.20;42.59;102610.19;5079574;28;20205;-70
2022/04/29 06:25:59;;;;;;;7.50;6.80;;;;;;;17.39;39.93;102603.94;5076934;28;20227;-70
2022/04/29 06:28:24;;;;;;;9.23;6.20;;;;;;;16.30;41.60;102616.47;5078633;28;20177;-71
2022/04/29 06:30:50;;;;;;;8.30;6.03;;;;;;;17.77;38.57;102605.19;5074819;28;20169;-68
2022/04/29 06:33:16;;;;;;;14.20;7.57;;;;;;;19.24;36.37;102607.09;5072759;28;20181;-70
2022/04/29 06:35:42;;;;;;;9.30;6.50;;;;;;;18.11;37.77;102610.81;5076447;28;20172;-70
2022/04/29 06:38:09;;;;;;;8.27;6.30;;;;;;;17.84;37.56;102602.59;5078057;28;20187;-70
2022/04/29 06:40:34;;;;;;;11.50;6.87;;;;;;;18.45;37.62;102604.00;5066538;28;20518;-70
2022/04/29 06:42:59;;;;;;;9.43;6.20;;;;;;;17.92;38.11;102607.13;5079248;28;20580;-70
2022/04/29 06:45:24;;;;;;;8.83;6.03;;;;;;;17.45;38.75;102603.97;5078993;28;20226;-71
2022/04/29 06:47:50;;;;;;;7.33;5.70;;;;;;;17.21;39.40;102611.63;5078932;28;20455;-71
2022/04/29 06:50:15;;;;;;;9.17;6.40;;;;;;;16.00;41.59;102617.72;5079097;28;20173;-71
2022/04/29 06:52:40;;;;;;;7.43;6.40;;;;;;;15.57;42.41;102623.06;5064610;28;20173;-70
2022/04/29 06:55:06;;;;;;;8.20;6.40;;;;;;;15.88;42.26;102620.16;5078561;28;20455;-71
2022/04/29 06:57:31;;;;;;;9.50;5.80;;;;;;;16.86;39.37;102612.00;5079475;28;20193;-70
2022/04/29 06:59:57;;;;;;;10.83;5.83;;;;;;;16.59;39.70;102622.19;5077134;28;20180;-70
2022/04/29 07:02:22;;;;;;;12.17;6.50;;;;;;;17.96;37.53;102611.56;5072822;28;20487;-71
2022/04/29 07:04:48;;;;;;;7.00;5.57;;;;;;;16.58;39.42;102622.19;5072978;28;20179;-72
2022/04/29 07:07:14;;;;;;;7.93;5.60;;;;;;;19.08;35.73;102595.56;5078498;28;20177;-69
2022/04/29 07:09:40;;;;;;;8.40;5.50;;;;;;;20.18;33.71;102601.06;5078771;28;20562;-73
2022/04/29 07:12:07;;;;;;;12.53;5.50;;;;;;;19.76;34.17;102601.03;5076484;28;20451;-68
2022/04/29 07:14:33;;;;;;;9.70;6.20;;;;;;;19.68;34.72;102602.78;5063861;28;20169;-72
2022/04/29 07:16:58;;;;;;;8.70;5.97;;;;;;;19.92;33.60;102601.09;5078321;28;20677;-70
2022/04/29 07:19:23;;;;;;;8.73;5.90;;;;;;;18.81;35.40;102602.47;5078637;28;20222;-70
2022/04/29 07:21:49;;;;;;;9.40;6.27;;;;;;;20.02;33.86;102593.16;5077170;28;20184;-70
2022/04/29 07:24:14;;;;;;;6.13;5.40;;;;;;;19.28;34.69;102597.38;5074012;28;20216;-70
2022/04/29 07:26:40;;;;;;;10.70;5.37;;;;;;;22.07;29.99;102589.59;5074763;28;20176;-69
2022/04/29 07:29:07;;;;;;;9.20;5.83;;;;;;;20.49;32.73;102601.91;5073696;28;20486;-71
2022/04/29 07:31:32;;;;;;;8.50;6.10;;;;;;;21.05;32.31;102590.28;5067318;28;20438;-71
2022/04/29 07:33:57;;;;;;;5.83;5.10;;;;;;;20.06;32.87;102606.38;5064903;28;20503;-71
2022/04/29 07:41:50;;;;;;;6.47;5.50;;;;;;;20.12;32.59;102598.41;5072209;28;20445;-71
2022/04/29 07:44:16;;;;;;;7.80;5.87;;;;;;;19.81;34.23;102601.06;5076299;28;20565;-70
2022/04/29 07:46:43;;;;;;;12.40;5.70;;;;;;;20.34;33.21;102594.00;5064956;28;20220;-69
2022/04/29 07:49:09;;;;;;;7.17;5.73;;;;;;;20.81;32.74;102592.13;5071329;28;20578;-70
2022/04/29 07:51:36;;;;;;;6.97;5.53;;;;;;;21.17;31.03;102590.22;5075994;28;20933;-72
2022/04/29 07:54:03;;;;;;;6.63;5.27;;;;;;;20.83;31.88;102601.84;5077219;28;20434;-69
2022/04/29 07:56:28;;;;;;;8.13;5.77;;;;;;;21.70;30.01;102590.78;5076941;28;20427;-70
2022/04/29 07:58:55;;;;;;;7.83;5.30;;;;;;;21.60;30.83;102583.81;5076730;28;20469;-70
2022/04/29 08:01:20;;;;;;;10.80;5.40;;;;;;;21.61;31.13;102577.56;5067720;28;20547;-71
2022/04/29 08:03:46;;;;;;;6.10;5.30;;;;;;;20.96;30.96;102591.19;5063629;28;20479;-70
2022/04/29 08:06:11;;;;;;;9.57;6.10;;;;;;;20.79;31.81;102589.47;5074007;28;20570;-69
2022/04/29 08:08:39;;;;;;;7.63;5.27;;;;;;;18.77;34.48;102592.75;5075861;28;20168;-68
2022/04/29 08:11:05;;;;;;;7.67;5.23;;;;;;;17.41;37.22;102589.00;5077536;28;20172;-69
2022/04/29 08:13:31;;;;;;;6.03;5.53;;;;;;;17.02;37.38;102603.47;5073029;28;20426;-69
2022/04/29 08:15:58;;;;;;;7.23;4.80;;;;;;;18.51;35.22;102593.50;5076237;28;20184;-68
2022/04/29 08:18:24;;;;;;;7.00;4.80;;;;;;;16.47;38.53;102599.19;5076098;28;20184;-69
2022/04/29 08:20:50;;;;;;;7.20;4.93;;;;;;;15.16;41.28;102602.97;5075846;28;20456;-70
2022/04/29 08:23:15;;;;;;;5.80;4.90;;;;;;;15.73;40.39;102607.59;5065420;28;20303;-70
2022/04/29 08:25:40;;;;;;;6.20;5.00;;;;;;;15.43;39.49;102604.41;5074451;28;20183;-72
2022/04/29 08:28:06;;;;;;;6.87;5.10;;;;;;;15.74;39.70;102609.38;5069977;28;20180;-70
2022/04/29 08:30:31;;;;;;;6.77;5.00;;;;;;;15.95;39.03;102608.88;5070915;28;20218;-69
2022/04/29 08:32:59;;;;;;;6.87;5.27;;;;;;;17.84;35.74;102586.78;5058550;28;20177;-68
2022/04/29 08:35:25;;;;;;;5.43;4.60;;;;;;;18.18;35.40;102584.47;5070878;28;20222;-69
2022/04/29 08:37:51;;;;;;;7.90;5.00;;;;;;;18.43;34.35;102589.91;5069069;28;20510;-68
2022/04/29 08:40:16;;;;;;;6.87;4.37;;;;;;;18.29;34.72;102583.66;5057930;28;20523;-69
2022/04/29 08:42:42;;;;;;;9.53;5.20;;;;;;;18.26;34.71;102588.91;5057653;28;20239;-69
2022/04/29 08:45:15;;;;;;;5.63;5.03;;;;;;;16.90;36.54;102595.41;5057831;28;20180;-68
2022/04/29 08:47:42;;;;;;;5.80;4.70;;;;;;;17.00;36.64;102597.31;5057677;28;20557;-68
2022/04/29 08:50:10;;;;;;;7.30;5.00;;;;;;;16.72;36.38;102596.91;5069561;28;20423;-71
2022/04/29 08:52:36;;;;;;;11.73;4.67;;;;;;;17.91;34.97;102586.84;5077695;28;20382;-71
2022/04/29 09:00:31;;;;;;;4.73;4.30;;;;;;;20.12;31.00;102579.88;5072038;28;20469;-70
2022/04/29 09:02:59;;;;;;;5.40;4.60;;;;;;;21.69;28.92;102567.81;5076143;28;20463;-70
2022/04/29 09:05:25;;;;;;;4.90;4.30;;;;;;;21.73;28.40;102569.53;5072623;28;20181;-70
2022/04/29 09:08:00;;;;;;;4.90;4.43;;;;;;;20.97;29.01;102569.97;5074571;28;20922;-70
2022/04/29 09:10:28;;;;;;;7.13;4.67;;;;;;;22.88;27.30;102563.97;5071639;28;20411;-69
2022/04/29 09:12:53;;;;;;;6.10;4.20;;;;;;;21.91;28.37;102567.63;5080354;28;20446;-70
2022/04/29 09:15:19;;;;;;;4.83;4.13;;;;;;;22.08;27.75;102568.34;5079904;28;20804;-69
2022/04/29 09:17:46;;;;;;;7.33;3.87;;;;;;;21.91;27.63;102571.16;5080803;28;20554;-68
2022/04/29 09:20:16;;;;;;;4.87;4.10;;;;;;;21.68;27.09;102571.34;5080478;28;20173;-69
2022/04/29 09:22:44;;;;;;;4.30;3.60;;;;;;;22.38;26.04;102569.00;5080071;28;20466;-70
2022/04/29 09:25:09;;;;;;;6.33;4.30;;;;;;;21.24;27.71;102569.84;5080111;28;20431;-69
2022/04/29 09:27:56;;;;;;;4.20;3.80;;;;;;;21.03;29.30;102566.41;5080514;28;20419;-71
2022/04/29 09:30:40;;;;;;;6.60;4.40;;;;;;;22.50;27.68;102560.88;5067688;28;20181;-70
2022/04/29 09:33:07;;;;;;;5.93;4.40;;;;;;;22.00;27.66;102563.13;5078454;28;20435;-71
2022/04/29 09:35:40;;;;;;;5.07;4.43;;;;;;;21.08;29.41;102569.94;5080345;28;20419;-69
2022/04/29 09:40:50;;;;;;;7.07;5.00;;;;;;;19.80;30.67;102578.09;5080290;28;20686;-69
2022/04/29 09:43:16;;;;;;;6.00;5.03;;;;;;;18.66;31.97;102578.63;5079970;28;20463;-70
2022/04/29 09:45:41;;;;;;;5.20;4.70;;;;;;;19.84;31.13;102574.59;5080039;28;20474;-71
2022/04/29 09:48:08;;;;;;;11.33;4.67;;;;;;;19.83;30.67;102573.69;5079852;28;20197;-71
2022/04/29 09:50:46;;;;;;;7.43;5.17;;;;;;;19.47;31.75;102575.41;5079467;28;20161;-71
2022/04/29 09:53:23;;;;;;;8.73;5.27;;;;;;;19.26;32.33;102567.44;5080146;28;20419;-71
2022/04/29 09:56:09;;;;;;;5.87;4.80;;;;;;;19.38;32.08;102564.81;5079550;28;20430;-72
2022/04/29 09:58:34;;;;;;;7.33;4.77;;;;;;;19.08;32.20;102561.22;5078513;28;20487;-71
2022/04/29 10:01:02;;;;;;;6.93;4.93;;;;;;;18.83;33.11;102558.44;5078139;28;20525;-71
2022/04/29 10:03:28;;;;;;;6.10;5.10;;;;;;;19.62;31.19;102563.97;5079535;28;20536;-71
2022/04/29 10:05:55;;;;;;;5.27;4.70;;;;;;;20.81;29.97;102552.34;5075947;28;20561;-71
2022/04/29 10:08:25;;;;;;;5.80;5.20;;;;;;;21.25;28.72;102551.25;5081477;28;20419;-71
2022/04/29 10:10:50;;;;;;;4.80;4.40;;;;;;;21.25;28.92;102553.91;5080073;28;20419;-71
2022/04/29 10:13:18;;;;;;;6.33;4.17;;;;;;;20.22;28.94;102554.28;5077792;28;20419;-69
2022/04/29 10:15:46;;;;;;;5.00;4.50;;;;;;;22.12;27.23;102545.28;5071766;28;20264;-69
2022/04/29 10:21:16;;;;;;;6.00;4.70;;;;;;;20.46;29.04;102553.34;5066825;28;20418;-69
2022/04/29 10:23:48;;;;;;;4.73;4.33;;;;;;;20.45;28.80;102546.28;5058224;28;20923;-69
2022/04/29 10:26:18;;;;;;;8.47;4.50;;;;;;;19.79;30.04;102555.16;5077867;28;20938;-70
2022/04/29 10:28:44;;;;;;;5.97;4.60;;;;;;;19.28;30.37;102563.91;5078896;28;20415;-69
2022/04/29 10:31:16;;;;;;;4.90;4.43;;;;;;;19.80;29.79;102557.81;5076252;28;20741;-71
2022/04/29 10:33:41;;;;;;;6.77;4.60;;;;;;;19.29;31.24;102563.00;5075958;28;20173;-70
2022/04/29 10:36:07;;;;;;;5.93;4.90;;;;;;;19.92;30.13;102558.72;5078396;28;20439;-70
2022/04/29 10:38:37;;;;;;;5.73;5.07;;;;;;;19.05;30.87;102562.94;5078433;28;20170;-69
2022/04/29 10:41:14;;;;;;;5.37;4.87;;;;;;;19.62;31.41;102557.78;5079199;28;20414;-69
2022/04/29 10:43:45;;;;;;;5.33;4.83;;;;;;;19.87;30.37;102549.91;5075313;28;20473;-69
2022/04/29 10:46:10;;;;;;;8.10;4.80;;;;;;;18.87;31.90;102550.53;5078715;28;20803;-70
2022/04/29 10:48:37;;;;;;;5.50;4.50;;;;;;;19.35;31.12;102546.31;5079202;28;20446;-70
2022/04/29 10:51:25;;;;;;;5.27;4.80;;;;;;;18.47;31.85;102557.38;5079210;28;20180;-69
2022/04/29 10:53:55;;;;;;;5.83;4.90;;;;;;;19.31;30.92;102557.75;5078266;28;20423;-68
2022/04/29 10:56:30;;;;;;;5.00;4.60;;;;;;;20.07;29.78;102556.06;5076400;28;20831;-69
2022/04/29 10:59:10;;;;;;;6.30;4.47;;;;;;;19.90;29.89;102552.53;5057625;28;20443;-69
2022/04/29 11:01:37;;;;;;;5.97;4.73;;;;;;;20.49;29.46;102546.25;5066108;28;20512;-69
2022/04/29 11:04:15;;;;;;;5.80;4.63;;;;;;;20.77;29.13;102534.69;5077986;28;20883;-69
2022/04/29 11:06:45;;;;;;;5.97;5.13;;;;;;;20.45;30.00;102533.91;5075222;28;20492;-70
2022/04/29 11:09:27;;;;;;;7.37;4.40;;;;;;;20.72;29.32;102529.44;5078711;28;20509;-70
2022/04/29 11:11:53;;;;;;;11.73;5.43;;;;;;;21.02;29.45;102533.69;5077886;28;20431;-70
2022/04/29 11:14:18;;;;;;;5.50;5.00;;;;;;;19.92;29.51;102529.63;5078699;28;20434;-70
2022/04/29 11:16:52;;;;;;;8.93;5.07;;;;;;;20.86;29.78;102519.66;5077760;28;20422;-70
2022/04/29 11:19:22;;;;;;;6.00;5.00;;;;;;;20.74;29.76;102516.19;5078586;28;20198;-70
2022/04/29 11:24:43;;;;;;;5.40;4.90;;;;;;;20.73;28.67;102520.59;5077105;28;20464;-69
2022/04/29 11:27:08;;;;;;;5.47;4.60;;;;;;;21.15;28.40;102512.44;5074549;28;20844;-71
2022/04/29 11:29:46;;;;;;;7.40;4.73;;;;;;;20.82;27.94;102517.91;5075740;28;20450;-70
2022/04/29 11:32:12;;;;;;;4.93;4.50;;;;;;;21.10;28.30;102514.22;5078182;28;20437;-69
2022/04/29 11:34:54;;;;;;;5.60;5.00;;;;;;;19.50;29.97;102519.84;5069505;28;20518;-70
2022/04/29 11:37:23;;;;;;;9.67;4.87;;;;;;;20.58;29.62;102510.00;5069667;28;20465;-71
2022/04/29 11:39:49;;;;;;;6.93;5.10;;;;;;;19.77;30.89;102502.22;5075824;28;20809;-71
2022/04/29 11:42:19;;;;;;;12.03;6.20;;;;;;;20.14;30.58;102504.84;5072761;28;20496;-71
2022/04/29 11:44:51;;;;;;;9.10;5.70;;;;;;;18.74;32.52;102505.56;5078419;28;20427;-71